Time;durP1;ratioP1;P1;durP2;ratioP2;P2;SDS_P1;SDS_P2;PMS_P1;PMS_P2;Temp;Humidity;BMP_temperature;BMP_pressure;BME280_temperature;BME280_humidity;BME280_pressure;Samples;Min_cycle;Max_cycle;Signal;HPM_P1;HPM_P2
2023/03/03 00:00:17;;;;;;;35.40;23.23;;;;;;;;;;5070920;28;20203;-53
2023/03/03 00:02:43;;;;;;;33.33;23.73;;;;;;;;;;5070097;28;20472;-53
2023/03/03 00:05:14;;;;;;;34.83;24.23;;;;;;;;;;5070784;28;20442;-53
2023/03/03 00:07:40;;;;;;;38.23;25.03;;;;;;;;;;5070528;28;20210;-53
2023/03/03 00:10:08;;;;;;;35.00;24.50;;;;;;;;;;5070947;28;20430;-50
2023/03/03 00:12:34;;;;;;;37.27;25.60;;;;;;;;;;5070196;28;20562;-51
2023/03/03 00:15:00;;;;;;;37.57;24.50;;;;;;;;;;5069907;28;20441;-50
2023/03/03 00:17:27;;;;;;;35.10;24.43;;;;;;;;;;5070071;28;20951;-52
2023/03/03 00:19:53;;;;;;;38.87;25.93;;;;;;;;;;5070235;28;20434;-52
2023/03/03 00:22:26;;;;;;;36.23;23.60;;;;;;;;;;5070239;28;20473;-52
2023/03/03 00:24:53;;;;;;;37.20;25.30;;;;;;;;;;5070233;28;20446;-52
2023/03/03 00:27:24;;;;;;;38.83;26.20;;;;;;;;;;5070063;28;20438;-51
2023/03/03 00:29:51;;;;;;;38.07;24.37;;;;;;;;;;5070334;28;20438;-53
2023/03/03 00:32:24;;;;;;;36.73;25.73;;;;;;;;;;5070059;28;20441;-52
2023/03/03 00:34:51;;;;;;;37.50;24.03;;;;;;;;;;5069989;28;20446;-52
2023/03/03 00:37:29;;;;;;;35.40;23.53;;;;;;;;;;5069806;28;20434;-51
2023/03/03 00:39:58;;;;;;;37.80;24.03;;;;;;;;;;5069972;28;20479;-51
2023/03/03 00:42:27;;;;;;;36.77;23.10;;;;;;;;;;5069803;28;20483;-51
2023/03/03 00:44:55;;;;;;;35.60;23.53;;;;;;;;;;5073678;28;20438;-51
2023/03/03 00:47:27;;;;;;;33.50;21.30;;;;;;;;;;5073630;28;20443;-53
2023/03/03 00:49:54;;;;;;;35.03;23.60;;;;;;;;;;5073472;28;20433;-52
2023/03/03 00:52:20;;;;;;;36.43;22.77;;;;;;;;;;5073467;28;20445;-51
2023/03/03 00:54:46;;;;;;;33.27;21.73;;;;;;;;;;5073288;28;20792;-52
2023/03/03 00:57:12;;;;;;;32.00;21.33;;;;;;;;;;5073279;28;20434;-52
2023/03/03 00:59:40;;;;;;;34.17;22.77;;;;;;;;;;5073183;28;20257;-51
2023/03/03 01:02:06;;;;;;;36.27;24.03;;;;;;;;;;5073357;28;20473;-50
2023/03/03 01:04:32;;;;;;;33.93;22.33;;;;;;;;;;5073155;28;20579;-49
2023/03/03 01:06:58;;;;;;;30.43;20.07;;;;;;;;;;5073260;28;20953;-50
2023/03/03 01:09:24;;;;;;;26.90;18.97;;;;;;;;;;5073255;28;20203;-52
2023/03/03 01:11:50;;;;;;;29.63;20.97;;;;;;;;;;5072859;28;20199;-53
2023/03/03 01:14:16;;;;;;;29.40;18.07;;;;;;;;;;5073146;28;20453;-53
2023/03/03 01:16:44;;;;;;;28.47;19.17;;;;;;;;;;5073005;28;21164;-52
2023/03/03 01:19:10;;;;;;;28.07;19.23;;;;;;;;;;5073183;28;20434;-52
2023/03/03 01:21:36;;;;;;;30.17;20.13;;;;;;;;;;5072961;28;20941;-53
2023/03/03 01:24:02;;;;;;;29.73;19.60;;;;;;;;;;5072606;28;20196;-53
2023/03/03 01:26:28;;;;;;;28.40;19.93;;;;;;;;;;5072839;28;20430;-53
2023/03/03 01:28:54;;;;;;;31.67;20.67;;;;;;;;;;5072516;28;20642;-53
2023/03/03 01:31:20;;;;;;;28.03;18.43;;;;;;;;;;5073002;28;20203;-53
2023/03/03 01:33:47;;;;;;;30.87;20.13;;;;;;;;;;5072451;28;20245;-53
2023/03/03 01:36:13;;;;;;;30.20;19.37;;;;;;;;;;5072616;28;20195;-53
2023/03/03 01:38:39;;;;;;;28.97;20.03;;;;;;;;;;5072631;28;20465;-53
2023/03/03 01:41:05;;;;;;;29.17;19.43;;;;;;;;;;5072728;28;20328;-53
2023/03/03 01:43:32;;;;;;;28.37;19.57;;;;;;;;;;5072315;28;20485;-53
2023/03/03 01:46:16;;;;;;;31.03;20.17;;;;;;;;;;5072251;28;20434;-53
2023/03/03 01:48:43;;;;;;;28.93;19.33;;;;;;;;;;5072429;28;20446;-53
2023/03/03 01:51:15;;;;;;;31.80;20.30;;;;;;;;;;5072497;28;20484;-51
2023/03/03 01:53:44;;;;;;;32.63;20.87;;;;;;;;;;5072370;28;20458;-53
2023/03/03 01:56:10;;;;;;;29.20;19.80;;;;;;;;;;5071563;28;20446;-53
2023/03/03 01:58:39;;;;;;;30.83;20.47;;;;;;;;;;5071783;28;20939;-52
2023/03/03 02:01:07;;;;;;;31.00;20.90;;;;;;;;;;5072334;28;20437;-52
2023/03/03 02:03:33;;;;;;;30.10;20.80;;;;;;;;;;5071983;28;20784;-52
2023/03/03 02:06:03;;;;;;;33.17;21.17;;;;;;;;;;5071539;28;20454;-52
2023/03/03 02:08:34;;;;;;;30.73;20.20;;;;;;;;;;5071132;28;20532;-52
2023/03/03 02:11:00;;;;;;;30.47;20.37;;;;;;;;;;5071288;28;20438;-52
2023/03/03 02:13:26;;;;;;;32.10;20.60;;;;;;;;;;5071332;28;20461;-52
2023/03/03 02:15:52;;;;;;;32.30;19.93;;;;;;;;;;5071506;28;20442;-53
2023/03/03 02:18:19;;;;;;;30.47;20.17;;;;;;;;;;5071332;28;20448;-52
2023/03/03 02:20:53;;;;;;;30.43;20.27;;;;;;;;;;5070737;28;20208;-53
2023/03/03 02:23:22;;;;;;;29.83;20.10;;;;;;;;;;5071340;28;20999;-53
2023/03/03 02:25:53;;;;;;;29.30;19.47;;;;;;;;;;5071779;28;20784;-53
2023/03/03 02:28:21;;;;;;;31.30;20.07;;;;;;;;;;5071838;28;20482;-52
2023/03/03 02:30:47;;;;;;;28.90;18.57;;;;;;;;;;5071564;28;20492;-53
2023/03/03 02:33:13;;;;;;;29.43;19.83;;;;;;;;;;5071504;28;20434;-53
2023/03/03 02:35:40;;;;;;;27.90;19.53;;;;;;;;;;5071576;28;20204;-53
2023/03/03 02:38:17;;;;;;;29.53;19.60;;;;;;;;;;5071733;28;20237;-53
2023/03/03 02:40:45;;;;;;;30.80;20.87;;;;;;;;;;5071291;28;20872;-53
2023/03/03 02:43:11;;;;;;;31.97;19.60;;;;;;;;;;5070962;28;20984;-53
2023/03/03 02:45:43;;;;;;;33.33;22.53;;;;;;;;;;5071483;28;20517;-53
2023/03/03 02:48:09;;;;;;;32.53;20.73;;;;;;;;;;5071552;28;20446;-53
2023/03/03 02:50:35;;;;;;;29.17;20.47;;;;;;;;;;5071450;28;20465;-53
2023/03/03 02:53:01;;;;;;;30.17;19.77;;;;;;;;;;5071341;28;20470;-53
2023/03/03 02:55:27;;;;;;;29.73;19.23;;;;;;;;;;5070859;28;20199;-53
2023/03/03 02:57:53;;;;;;;28.93;18.87;;;;;;;;;;5071252;28;20204;-52
2023/03/03 03:00:20;;;;;;;29.23;19.23;;;;;;;;;;5071090;28;20199;-52
2023/03/03 03:02:47;;;;;;;27.60;18.90;;;;;;;;;;5070919;28;20619;-52
2023/03/03 03:05:14;;;;;;;32.70;21.10;;;;;;;;;;5070896;28;20533;-52
2023/03/03 03:07:40;;;;;;;33.77;21.73;;;;;;;;;;5070532;28;20442;-53
2023/03/03 03:10:10;;;;;;;29.30;20.00;;;;;;;;;;5071230;28;20506;-53
2023/03/03 03:12:36;;;;;;;31.13;21.03;;;;;;;;;;5070798;28;20635;-53
2023/03/03 03:15:02;;;;;;;32.27;20.57;;;;;;;;;;5070960;28;20432;-53
2023/03/03 03:17:28;;;;;;;30.47;19.30;;;;;;;;;;5070728;28;20438;-53
2023/03/03 03:19:55;;;;;;;30.13;19.70;;;;;;;;;;5070871;28;20520;-53
2023/03/03 03:22:21;;;;;;;28.33;20.37;;;;;;;;;;5070923;28;20590;-53
2023/03/03 03:24:47;;;;;;;32.97;20.80;;;;;;;;;;5070741;28;20934;-53
2023/03/03 03:27:13;;;;;;;27.13;19.43;;;;;;;;;;5070777;28;20229;-52
2023/03/03 03:29:39;;;;;;;35.10;21.60;;;;;;;;;;5070250;28;20449;-53
2023/03/03 03:32:05;;;;;;;37.60;22.60;;;;;;;;;;5070781;28;20195;-53
2023/03/03 03:34:31;;;;;;;33.63;20.90;;;;;;;;;;5070690;28;20442;-53
2023/03/03 03:36:59;;;;;;;33.97;21.87;;;;;;;;;;5070730;28;20441;-52
2023/03/03 03:39:25;;;;;;;33.30;21.07;;;;;;;;;;5070455;28;20709;-52
2023/03/03 03:41:51;;;;;;;32.67;21.80;;;;;;;;;;5070067;28;20936;-52
2023/03/03 03:44:17;;;;;;;31.20;21.10;;;;;;;;;;5070788;28;20464;-53
2023/03/03 03:46:43;;;;;;;29.43;19.00;;;;;;;;;;5070463;28;20238;-52
2023/03/03 03:49:08;;;;;;;33.67;21.17;;;;;;;;;;5070756;28;20195;-53
2023/03/03 03:51:37;;;;;;;36.97;22.20;;;;;;;;;;5070460;28;20626;-52
2023/03/03 03:54:04;;;;;;;34.93;22.87;;;;;;;;;;5070401;28;20252;-52
2023/03/03 03:56:30;;;;;;;33.33;23.27;;;;;;;;;;5070395;28;20462;-52
2023/03/03 03:58:56;;;;;;;37.80;23.70;;;;;;;;;;5070390;28;20963;-52
2023/03/03 04:01:22;;;;;;;33.83;22.33;;;;;;;;;;5070637;28;20469;-52
2023/03/03 04:03:48;;;;;;;36.43;23.40;;;;;;;;;;5069896;28;20338;-52
2023/03/03 04:06:14;;;;;;;32.33;22.07;;;;;;;;;;5070283;28;20200;-52
2023/03/03 04:08:40;;;;;;;36.10;22.90;;;;;;;;;;5070280;28;20441;-53
2023/03/03 04:11:07;;;;;;;36.07;23.10;;;;;;;;;;5070668;28;20201;-52
2023/03/03 04:13:34;;;;;;;34.20;22.57;;;;;;;;;;5070098;28;20868;-52
2023/03/03 04:16:00;;;;;;;38.97;25.00;;;;;;;;;;5069858;28;20755;-52
2023/03/03 04:18:26;;;;;;;39.87;24.33;;;;;;;;;;5071646;28;20441;-52
2023/03/03 04:20:53;;;;;;;40.77;25.77;;;;;;;;;;5074250;28;20204;-52
2023/03/03 04:23:19;;;;;;;41.27;26.53;;;;;;;;;;5074077;28;20520;-52
2023/03/03 04:25:45;;;;;;;42.07;25.87;;;;;;;;;;5074156;28;20816;-53
2023/03/03 04:28:13;;;;;;;40.53;26.33;;;;;;;;;;5073843;28;20466;-53
2023/03/03 04:30:39;;;;;;;41.63;26.30;;;;;;;;;;5074066;28;20440;-53
2023/03/03 04:33:05;;;;;;;42.53;25.53;;;;;;;;;;5074094;28;20525;-53
2023/03/03 04:35:31;;;;;;;39.90;25.43;;;;;;;;;;5073943;28;20201;-53
2023/03/03 04:37:57;;;;;;;42.53;26.57;;;;;;;;;;5073743;28;20669;-53
2023/03/03 04:40:23;;;;;;;37.53;25.17;;;;;;;;;;5073723;28;20235;-53
2023/03/03 04:42:49;;;;;;;41.37;25.97;;;;;;;;;;5073660;28;20504;-53
2023/03/03 04:45:16;;;;;;;41.97;26.33;;;;;;;;;;5073868;28;20271;-53
2023/03/03 04:47:42;;;;;;;38.43;24.87;;;;;;;;;;5073718;28;20441;-53
2023/03/03 04:50:10;;;;;;;38.13;24.63;;;;;;;;;;5073444;28;20955;-53
2023/03/03 04:52:36;;;;;;;37.57;24.83;;;;;;;;;;5073668;28;20456;-53
2023/03/03 04:55:02;;;;;;;36.90;25.03;;;;;;;;;;5073816;28;20437;-53
2023/03/03 04:57:28;;;;;;;40.63;25.33;;;;;;;;;;5073530;28;20507;-53
2023/03/03 04:59:54;;;;;;;39.20;25.57;;;;;;;;;;5073631;28;20195;-52
2023/03/03 05:02:21;;;;;;;40.30;26.57;;;;;;;;;;5073139;28;20577;-52
2023/03/03 05:04:47;;;;;;;38.90;25.70;;;;;;;;;;5073038;28;20214;-53
2023/03/03 05:07:13;;;;;;;37.73;24.83;;;;;;;;;;5073337;28;20465;-51
2023/03/03 05:09:39;;;;;;;41.47;26.60;;;;;;;;;;5073203;28;20966;-53
2023/03/03 05:12:06;;;;;;;39.30;25.50;;;;;;;;;;5073289;28;20286;-52
2023/03/03 05:14:32;;;;;;;40.57;25.43;;;;;;;;;;5073161;28;20582;-52
2023/03/03 05:16:58;;;;;;;40.60;26.53;;;;;;;;;;5073030;28;20433;-52
2023/03/03 05:19:25;;;;;;;40.13;26.80;;;;;;;;;;5073176;28;20978;-52
2023/03/03 05:21:51;;;;;;;38.83;26.33;;;;;;;;;;5072604;28;20441;-52
2023/03/03 05:24:17;;;;;;;40.33;26.77;;;;;;;;;;5073078;28;20442;-53
2023/03/03 05:26:43;;;;;;;44.70;27.80;;;;;;;;;;5072940;28;20204;-53
2023/03/03 05:29:09;;;;;;;44.50;28.70;;;;;;;;;;5072357;28;20483;-53
2023/03/03 05:31:35;;;;;;;38.13;25.43;;;;;;;;;;5072563;28;20192;-53
2023/03/03 05:34:01;;;;;;;42.83;26.83;;;;;;;;;;5072435;28;20438;-53
2023/03/03 05:36:29;;;;;;;41.27;27.10;;;;;;;;;;5072811;28;20802;-52
2023/03/03 05:38:55;;;;;;;40.03;25.93;;;;;;;;;;5072830;28;20841;-52
2023/03/03 05:41:21;;;;;;;37.03;24.93;;;;;;;;;;5072794;28;20477;-54
2023/03/03 05:43:47;;;;;;;38.23;25.80;;;;;;;;;;5072699;28;20527;-53
2023/03/03 05:46:13;;;;;;;36.17;24.53;;;;;;;;;;5072834;28;20287;-53
2023/03/03 05:48:39;;;;;;;38.60;25.50;;;;;;;;;;5072758;28;20203;-53
2023/03/03 05:51:05;;;;;;;36.83;23.63;;;;;;;;;;5072893;28;20433;-53
2023/03/03 05:53:33;;;;;;;35.33;23.83;;;;;;;;;;5072652;28;20441;-51
2023/03/03 05:55:59;;;;;;;38.03;23.73;;;;;;;;;;5072401;28;20648;-53
2023/03/03 05:58:25;;;;;;;36.60;23.10;;;;;;;;;;5072679;28;20935;-53
2023/03/03 06:00:51;;;;;;;37.03;24.20;;;;;;;;;;5072657;28;20196;-53
2023/03/03 06:03:17;;;;;;;38.47;24.30;;;;;;;;;;5072510;28;20472;-53
2023/03/03 06:05:43;;;;;;;36.83;24.00;;;;;;;;;;5072413;28;20426;-53
2023/03/03 06:08:09;;;;;;;36.37;23.53;;;;;;;;;;5072526;28;20438;-53
2023/03/03 06:10:36;;;;;;;39.43;24.63;;;;;;;;;;5072387;28;20480;-53
2023/03/03 06:13:02;;;;;;;38.50;25.07;;;;;;;;;;5072090;28;20960;-53
2023/03/03 06:15:28;;;;;;;37.63;23.77;;;;;;;;;;5072058;28;20441;-53
2023/03/03 06:17:54;;;;;;;35.97;22.40;;;;;;;;;;5071568;28;20513;-53
2023/03/03 06:20:20;;;;;;;36.00;23.63;;;;;;;;;;5072223;28;20714;-52
2023/03/03 06:22:46;;;;;;;35.10;21.90;;;;;;;;;;5071442;28;20231;-54
2023/03/03 06:25:12;;;;;;;29.57;19.80;;;;;;;;;;5072076;28;20200;-53
2023/03/03 06:27:39;;;;;;;32.13;19.33;;;;;;;;;;5071835;28;20658;-53
2023/03/03 06:30:06;;;;;;;29.23;20.23;;;;;;;;;;5072003;28;20204;-53
2023/03/03 06:32:32;;;;;;;28.83;20.00;;;;;;;;;;5071755;28;20445;-53
2023/03/03 06:34:58;;;;;;;30.60;19.80;;;;;;;;;;5071314;28;20457;-53
2023/03/03 06:37:24;;;;;;;29.97;20.10;;;;;;;;;;5071828;28;20916;-53
2023/03/03 06:39:51;;;;;;;33.20;20.90;;;;;;;;;;5071474;28;20760;-53
2023/03/03 06:42:17;;;;;;;30.00;19.23;;;;;;;;;;5071238;28;20793;-53
2023/03/03 06:44:45;;;;;;;32.03;19.10;;;;;;;;;;5071575;28;20509;-53
2023/03/03 06:47:11;;;;;;;25.17;17.00;;;;;;;;;;5071527;28;20454;-53
2023/03/03 06:49:37;;;;;;;26.90;17.03;;;;;;;;;;5071376;28;20437;-53
2023/03/03 06:52:09;;;;;;;27.27;17.87;;;;;;;;;;5071695;28;20196;-53
2023/03/03 06:54:35;;;;;;;28.30;18.07;;;;;;;;;;5071583;28;20422;-53
2023/03/03 06:57:08;;;;;;;29.33;18.83;;;;;;;;;;5071186;28;20503;-53
2023/03/03 06:59:34;;;;;;;27.53;18.43;;;;;;;;;;5071367;28;20203;-53
2023/03/03 07:02:01;;;;;;;29.10;19.20;;;;;;;;;;5071183;28;21281;-53
2023/03/03 07:04:29;;;;;;;27.77;18.10;;;;;;;;;;5071274;28;20537;-53
2023/03/03 07:06:55;;;;;;;29.00;19.03;;;;;;;;;;5071184;28;20811;-53
2023/03/03 07:09:22;;;;;;;26.70;16.57;;;;;;;;;;5071495;28;20875;-53
2023/03/03 07:11:49;;;;;;;28.13;17.13;;;;;;;;;;5071004;28;20814;-53
2023/03/03 07:14:16;;;;;;;24.83;15.90;;;;;;;;;;5071100;28;20641;-53
2023/03/03 07:16:42;;;;;;;24.50;16.40;;;;;;;;;;5071049;28;20448;-53
2023/03/03 07:19:15;;;;;;;25.70;15.97;;;;;;;;;;5071247;28;20509;-53
2023/03/03 07:21:41;;;;;;;24.53;15.97;;;;;;;;;;5071007;28;20225;-53
2023/03/03 07:24:18;;;;;;;24.53;16.33;;;;;;;;;;5070982;28;21054;-53
2023/03/03 07:26:44;;;;;;;25.73;16.10;;;;;;;;;;5070716;28;20200;-54
2023/03/03 07:29:18;;;;;;;24.03;15.67;;;;;;;;;;5070945;28;20500;-54
2023/03/03 07:31:45;;;;;;;22.27;15.27;;;;;;;;;;5071140;28;20249;-53
2023/03/03 07:34:17;;;;;;;21.13;15.40;;;;;;;;;;5070874;28;20994;-53
2023/03/03 07:36:43;;;;;;;25.33;16.80;;;;;;;;;;5070994;28;20614;-53
2023/03/03 07:39:21;;;;;;;26.30;17.37;;;;;;;;;;5071017;28;20446;-53
2023/03/03 07:41:47;;;;;;;26.07;16.90;;;;;;;;;;5070914;28;20429;-53
2023/03/03 07:44:17;;;;;;;24.10;15.80;;;;;;;;;;5070875;28;20485;-52
2023/03/03 07:46:44;;;;;;;26.83;17.20;;;;;;;;;;5070858;28;20298;-53
2023/03/03 07:49:21;;;;;;;27.90;16.73;;;;;;;;;;5070886;28;20457;-53
2023/03/03 07:51:47;;;;;;;22.90;15.37;;;;;;;;;;5070751;28;20821;-53
2023/03/03 07:54:39;;;;;;;25.90;16.67;;;;;;;;;;5073602;28;20489;-53
2023/03/03 07:57:12;;;;;;;24.40;15.17;;;;;;;;;;5060080;28;20441;-53
2023/03/03 07:59:41;;;;;;;24.07;16.13;;;;;;;;;;5074988;28;20939;-53
2023/03/03 08:02:14;;;;;;;24.50;16.27;;;;;;;;;;5075016;28;20450;-52
2023/03/03 08:04:43;;;;;;;29.60;17.70;;;;;;;;;;5074831;28;20436;-53
2023/03/03 08:07:11;;;;;;;26.07;16.50;;;;;;;;;;5074847;28;20448;-53
2023/03/03 08:09:47;;;;;;;23.27;15.40;;;;;;;;;;5074892;28;20437;-52
2023/03/03 08:12:23;;;;;;;24.10;16.37;;;;;;;;;;5074624;28;20429;-54
2023/03/03 08:14:51;;;;;;;24.90;16.67;;;;;;;;;;5074536;28;20465;-53
2023/03/03 08:17:20;;;;;;;22.87;15.80;;;;;;;;;;5074275;28;20436;-52
2023/03/03 08:19:47;;;;;;;25.03;16.40;;;;;;;;;;5073996;28;20970;-53
2023/03/03 08:22:15;;;;;;;21.37;14.40;;;;;;;;;;5074204;28;20473;-53
2023/03/03 08:24:41;;;;;;;22.23;16.13;;;;;;;;;;5074140;28;20469;-54
2023/03/03 08:27:07;;;;;;;21.03;14.60;;;;;;;;;;5074145;28;20441;-54
2023/03/03 08:29:33;;;;;;;22.83;16.10;;;;;;;;;;5074122;28;20199;-55
2023/03/03 08:31:59;;;;;;;23.13;16.53;;;;;;;;;;5074125;28;20263;-54
2023/03/03 08:34:25;;;;;;;23.83;16.67;;;;;;;;;;5073951;28;20192;-51
2023/03/03 08:36:53;;;;;;;22.27;16.17;;;;;;;;;;5073974;28;20211;-55
2023/03/03 08:39:19;;;;;;;21.50;15.53;;;;;;;;;;5074250;28;20457;-54
2023/03/03 08:41:46;;;;;;;24.07;15.43;;;;;;;;;;5073763;28;20438;-54
2023/03/03 08:44:12;;;;;;;21.73;15.57;;;;;;;;;;5073838;28;20488;-54
2023/03/03 08:46:38;;;;;;;20.87;14.43;;;;;;;;;;5073676;28;20453;-53
2023/03/03 08:49:04;;;;;;;21.60;14.93;;;;;;;;;;5073800;28;20446;-54
2023/03/03 08:51:32;;;;;;;23.27;16.03;;;;;;;;;;5073636;28;20429;-54
2023/03/03 08:53:59;;;;;;;25.37;17.07;;;;;;;;;;5073804;28;20206;-54
2023/03/03 08:56:26;;;;;;;24.50;16.80;;;;;;;;;;5073417;28;20814;-54
2023/03/03 08:58:52;;;;;;;25.57;16.80;;;;;;;;;;5073481;28;20441;-54
2023/03/03 09:01:18;;;;;;;23.50;15.40;;;;;;;;;;5073625;28;20492;-55
2023/03/03 09:03:44;;;;;;;19.83;13.80;;;;;;;;;;5072968;28;20216;-54
2023/03/03 09:06:10;;;;;;;21.30;14.73;;;;;;;;;;5073402;28;20475;-54
2023/03/03 09:08:36;;;;;;;24.23;15.17;;;;;;;;;;5073344;28;20813;-54
2023/03/03 09:11:09;;;;;;;24.37;15.63;;;;;;;;;;5073212;28;20456;-54
2023/03/03 09:13:35;;;;;;;25.00;16.60;;;;;;;;;;5073158;28;20858;-54
2023/03/03 09:16:01;;;;;;;26.17;16.63;;;;;;;;;;5073228;28;20442;-54
2023/03/03 09:18:30;;;;;;;27.07;17.00;;;;;;;;;;5073216;28;20434;-53
2023/03/03 09:20:56;;;;;;;27.10;17.43;;;;;;;;;;5072995;28;20611;-55
2023/03/03 09:23:34;;;;;;;28.80;17.70;;;;;;;;;;5073090;28;20504;-54
2023/03/03 09:26:17;;;;;;;27.33;17.43;;;;;;;;;;5073065;28;20261;-55
2023/03/03 09:28:43;;;;;;;27.03;16.87;;;;;;;;;;5072846;28;20469;-53
2023/03/03 09:31:20;;;;;;;28.90;17.93;;;;;;;;;;5073003;28;20433;-56
2023/03/03 09:33:50;;;;;;;27.00;16.90;;;;;;;;;;5072764;28;20266;-53
2023/03/03 09:36:20;;;;;;;30.43;18.73;;;;;;;;;;5072867;28;20426;-54
2023/03/03 09:38:46;;;;;;;32.83;18.33;;;;;;;;;;5072855;28;20473;-53
2023/03/03 09:41:30;;;;;;;31.93;18.63;;;;;;;;;;5072822;28;20793;-53
2023/03/03 09:44:08;;;;;;;87.87;58.77;;;;;;;;;;5072662;28;20477;-54
2023/03/03 09:46:40;;;;;;;38.50;21.60;;;;;;;;;;5072922;28;20430;-54
2023/03/03 09:49:11;;;;;;;35.50;20.93;;;;;;;;;;5073157;28;20473;-54
2023/03/03 09:51:46;;;;;;;34.90;20.50;;;;;;;;;;5072908;28;20457;-53
2023/03/03 09:54:18;;;;;;;38.97;20.73;;;;;;;;;;5072622;28;21200;-53
2023/03/03 09:56:46;;;;;;;38.60;19.83;;;;;;;;;;5072561;28;20469;-54
2023/03/03 09:59:22;;;;;;;40.63;22.07;;;;;;;;;;5072545;28;20437;-53
2023/03/03 10:01:53;;;;;;;40.90;20.50;;;;;;;;;;5072491;28;20441;-53
2023/03/03 10:04:29;;;;;;;39.17;20.67;;;;;;;;;;5072586;28;20584;-53
2023/03/03 10:07:01;;;;;;;44.77;22.33;;;;;;;;;;5072532;28;20480;-54
2023/03/03 10:09:39;;;;;;;31.30;19.50;;;;;;;;;;5072374;28;20469;-54
2023/03/03 10:12:10;;;;;;;34.87;19.43;;;;;;;;;;5072354;28;20980;-54
2023/03/03 10:14:49;;;;;;;30.03;18.53;;;;;;;;;;5072390;28;20468;-54
2023/03/03 10:17:22;;;;;;;31.53;17.53;;;;;;;;;;5071475;28;20529;-54
2023/03/03 10:19:53;;;;;;;32.77;18.20;;;;;;;;;;5072058;28;20491;-54
2023/03/03 10:22:23;;;;;;;33.60;19.03;;;;;;;;;;5072237;28;20438;-54
2023/03/03 10:24:55;;;;;;;30.30;18.93;;;;;;;;;;5072064;28;20430;-54
2023/03/03 10:27:30;;;;;;;30.73;17.73;;;;;;;;;;5072087;28;20456;-54
2023/03/03 10:30:02;;;;;;;29.47;17.67;;;;;;;;;;5072050;28;20939;-54
2023/03/03 10:32:44;;;;;;;23.73;15.50;;;;;;;;;;5071625;28;20450;-54
2023/03/03 10:35:34;;;;;;;26.63;15.73;;;;;;;;;;5071897;28;20924;-54
2023/03/03 10:38:13;;;;;;;24.17;14.97;;;;;;;;;;5015139;28;20535;-54
2023/03/03 10:40:43;;;;;;;25.17;15.90;;;;;;;;;;5071607;28;20561;-54
2023/03/03 10:43:15;;;;;;;25.40;17.00;;;;;;;;;;5071619;28;20478;-54
2023/03/03 10:45:55;;;;;;;28.13;16.90;;;;;;;;;;5071683;28;20520;-54
2023/03/03 10:48:35;;;;;;;26.43;15.87;;;;;;;;;;5071681;28;20445;-53
2023/03/03 10:51:06;;;;;;;28.43;16.30;;;;;;;;;;5071528;28;20942;-54
2023/03/03 10:53:34;;;;;;;26.13;16.60;;;;;;;;;;5071575;28;20437;-54
2023/03/03 10:56:09;;;;;;;31.97;19.63;;;;;;;;;;5071295;28;20433;-53
2023/03/03 10:58:40;;;;;;;37.57;20.00;;;;;;;;;;5071515;28;20985;-54
2023/03/03 11:01:12;;;;;;;33.30;18.60;;;;;;;;;;5071738;28;20535;-53
2023/03/03 11:03:45;;;;;;;34.43;20.37;;;;;;;;;;5071197;28;20996;-53
2023/03/03 11:06:14;;;;;;;29.10;18.97;;;;;;;;;;5071485;28;20437;-54
2023/03/03 11:08:42;;;;;;;38.73;22.37;;;;;;;;;;5071445;28;20513;-54
2023/03/03 11:11:13;;;;;;;33.60;19.93;;;;;;;;;;5071234;28;20470;-54
2023/03/03 11:13:46;;;;;;;32.67;19.73;;;;;;;;;;5071484;28;20862;-55
2023/03/03 11:16:21;;;;;;;35.03;19.83;;;;;;;;;;5071258;28;20805;-54
2023/03/03 11:18:55;;;;;;;32.90;18.67;;;;;;;;;;5071216;28;20445;-54
2023/03/03 11:21:26;;;;;;;33.47;18.60;;;;;;;;;;5071570;28;20457;-54
2023/03/03 11:23:55;;;;;;;32.97;18.90;;;;;;;;;;5070895;28;20482;-54
2023/03/03 11:26:29;;;;;;;39.37;27.43;;;;;;;;;;5071186;28;20460;-54
2023/03/03 11:29:02;;;;;;;34.30;18.90;;;;;;;;;;5071011;28;21018;-54
2023/03/03 11:31:33;;;;;;;37.67;19.50;;;;;;;;;;5071108;28;20753;-54
2023/03/03 11:34:05;;;;;;;38.13;23.57;;;;;;;;;;5071215;28;20442;-54
2023/03/03 11:36:34;;;;;;;44.50;30.90;;;;;;;;;;5070977;28;20434;-54
2023/03/03 11:39:02;;;;;;;66.30;39.80;;;;;;;;;;5070852;28;20426;-54
2023/03/03 11:41:32;;;;;;;39.57;22.63;;;;;;;;;;5070848;28;20523;-54
2023/03/03 11:44:03;;;;;;;33.00;18.83;;;;;;;;;;5070713;28;20810;-54
2023/03/03 11:46:33;;;;;;;34.30;18.77;;;;;;;;;;5068982;28;20750;-54
2023/03/03 11:49:02;;;;;;;38.37;20.43;;;;;;;;;;5070913;28;20433;-54
2023/03/03 11:51:32;;;;;;;34.90;20.27;;;;;;;;;;5070989;28;20464;-54
2023/03/03 11:54:00;;;;;;;34.27;19.40;;;;;;;;;;5070889;28;20442;-54
2023/03/03 11:56:27;;;;;;;36.17;19.87;;;;;;;;;;5070813;28;20437;-54
2023/03/03 11:59:07;;;;;;;33.77;19.67;;;;;;;;;;5071096;28;20511;-54
2023/03/03 12:01:36;;;;;;;36.93;20.33;;;;;;;;;;5070961;28;20442;-54
2023/03/03 12:04:04;;;;;;;37.07;21.63;;;;;;;;;;5070860;28;20484;-54
2023/03/03 12:06:33;;;;;;;37.13;21.70;;;;;;;;;;5071137;28;20775;-54
2023/03/03 12:09:12;;;;;;;38.93;22.17;;;;;;;;;;5070903;28;20454;-54
2023/03/03 12:11:42;;;;;;;37.30;21.53;;;;;;;;;;5069191;28;20915;-54
2023/03/03 12:14:15;;;;;;;35.37;20.57;;;;;;;;;;5071093;28;20449;-54
2023/03/03 12:16:49;;;;;;;29.30;19.37;;;;;;;;;;5070837;28;20616;-54
2023/03/03 12:19:21;;;;;;;34.87;19.27;;;;;;;;;;5070948;28;20661;-54
2023/03/03 12:21:54;;;;;;;30.43;18.90;;;;;;;;;;5070750;28;20893;-54
2023/03/03 12:24:31;;;;;;;44.80;32.30;;;;;;;;;;5070832;28;21006;-54
2023/03/03 12:27:01;;;;;;;30.47;19.93;;;;;;;;;;5070625;28;20957;-55
2023/03/03 12:29:31;;;;;;;31.47;20.10;;;;;;;;;;5070646;28;20962;-54
2023/03/03 12:32:05;;;;;;;28.77;18.50;;;;;;;;;;5070479;28;20798;-54
2023/03/03 12:34:34;;;;;;;26.43;18.07;;;;;;;;;;5070527;28;20438;-54
2023/03/03 12:37:06;;;;;;;26.60;17.60;;;;;;;;;;5070558;28;20448;-54
2023/03/03 12:39:38;;;;;;;29.07;19.43;;;;;;;;;;5072074;28;20478;-54
2023/03/03 12:42:07;;;;;;;29.43;19.43;;;;;;;;;;5074483;28;20491;-54
2023/03/03 12:44:35;;;;;;;25.73;17.73;;;;;;;;;;5074341;28;20489;-55
2023/03/03 12:47:05;;;;;;;28.10;20.47;;;;;;;;;;5074305;28;20464;-54
2023/03/03 12:49:36;;;;;;;26.17;17.80;;;;;;;;;;5074306;28;20445;-54
2023/03/03 12:52:09;;;;;;;24.37;18.47;;;;;;;;;;5074476;28;20457;-54
2023/03/03 12:54:45;;;;;;;22.83;17.70;;;;;;;;;;5074361;28;20433;-54
2023/03/03 12:57:19;;;;;;;25.70;17.60;;;;;;;;;;5074174;28;20437;-54
2023/03/03 12:59:50;;;;;;;23.37;17.47;;;;;;;;;;5074057;28;20444;-54
2023/03/03 13:02:33;;;;;;;28.47;19.63;;;;;;;;;;5074211;28;20483;-54
2023/03/03 13:05:05;;;;;;;21.53;16.93;;;;;;;;;;5073916;28;20434;-54
2023/03/03 13:07:33;;;;;;;27.07;19.10;;;;;;;;;;5074052;28;20449;-54
2023/03/03 13:10:05;;;;;;;28.53;21.00;;;;;;;;;;5073990;28;20449;-54
2023/03/03 13:12:34;;;;;;;22.80;17.43;;;;;;;;;;5073908;28;20430;-54
2023/03/03 13:15:04;;;;;;;22.40;16.63;;;;;;;;;;5073747;28;20479;-54
2023/03/03 13:17:33;;;;;;;17.87;14.33;;;;;;;;;;5073786;28;20867;-54
2023/03/03 13:20:01;;;;;;;19.30;14.63;;;;;;;;;;5073518;28;20449;-57
2023/03/03 13:22:34;;;;;;;20.63;14.67;;;;;;;;;;5073680;28;20442;-54
2023/03/03 13:25:02;;;;;;;18.67;13.17;;;;;;;;;;5073455;28;20445;-54
2023/03/03 13:27:32;;;;;;;19.53;13.93;;;;;;;;;;5073780;28;20476;-54
2023/03/03 13:29:59;;;;;;;16.57;14.03;;;;;;;;;;5073677;28;20421;-54
2023/03/03 13:32:32;;;;;;;17.60;13.90;;;;;;;;;;5073415;28;20473;-53
2023/03/03 13:35:02;;;;;;;23.00;16.23;;;;;;;;;;5073145;28;20456;-54
2023/03/03 13:37:30;;;;;;;20.47;16.03;;;;;;;;;;5073398;28;20541;-54
2023/03/03 13:39:59;;;;;;;26.57;16.97;;;;;;;;;;5073119;28;20477;-54
2023/03/03 13:42:28;;;;;;;23.87;17.50;;;;;;;;;;5073292;28;20450;-54
2023/03/03 13:44:56;;;;;;;26.07;18.30;;;;;;;;;;5072944;28;20477;-54
2023/03/03 13:47:28;;;;;;;22.77;16.03;;;;;;;;;;5073295;28;20446;-53
2023/03/03 13:50:11;;;;;;;21.80;15.17;;;;;;;;;;5072889;28;20453;-54
2023/03/03 13:52:40;;;;;;;18.90;13.63;;;;;;;;;;5072805;28;20492;-54
2023/03/03 13:55:13;;;;;;;18.27;13.03;;;;;;;;;;5073095;28;20457;-54
2023/03/03 13:57:44;;;;;;;17.47;13.57;;;;;;;;;;5073011;28;20954;-54
2023/03/03 14:00:16;;;;;;;17.33;13.03;;;;;;;;;;5072978;28;20810;-54
2023/03/03 14:03:09;;;;;;;18.50;13.90;;;;;;;;;;5072707;28;20730;-54
2023/03/03 14:05:38;;;;;;;18.13;12.70;;;;;;;;;;5036834;28;20203;-54
2023/03/03 14:08:08;;;;;;;16.67;12.80;;;;;;;;;;5072572;28;20204;-54
2023/03/03 14:10:38;;;;;;;16.03;12.17;;;;;;;;;;5072848;28;20199;-53
2023/03/03 14:13:06;;;;;;;13.27;11.50;;;;;;;;;;5072719;28;20620;-54
2023/03/03 14:15:37;;;;;;;15.73;11.13;;;;;;;;;;5072690;28;20214;-54
2023/03/03 14:18:07;;;;;;;14.27;10.87;;;;;;;;;;5072665;28;20654;-54
2023/03/03 14:20:35;;;;;;;14.97;11.40;;;;;;;;;;5072917;28;20195;-54
2023/03/03 14:23:07;;;;;;;17.03;11.03;;;;;;;;;;5072496;28;20227;-55
2023/03/03 14:25:48;;;;;;;14.73;10.70;;;;;;;;;;5072470;28;20210;-54